Time;durP1;ratioP1;P1;durP2;ratioP2;P2;SDS_P1;SDS_P2;PMS_P1;PMS_P2;Temp;Humidity;BMP_temperature;BMP_pressure;BME280_temperature;BME280_humidity;BME280_pressure;Samples;Min_cycle;Max_cycle;Signal;HPM_P1;HPM_P2
2023/11/22 00:02:02;;;;;;;9.40;7.55;;;2.10;1.00;;;;;;5068250;28;20742;-76
2023/11/22 00:04:28;;;;;;;9.98;7.68;;;2.20;1.00;;;;;;5064721;28;20244;-74
2023/11/22 00:06:55;;;;;;;7.07;6.38;;;2.20;1.00;;;;;;5068165;28;20249;-75
2023/11/22 00:09:23;;;;;;;9.13;6.53;;;2.30;1.00;;;;;;5067053;28;20260;-75
2023/11/22 00:11:50;;;;;;;10.85;7.85;;;2.40;1.00;;;;;;5070287;28;20732;-76
2023/11/22 00:14:17;;;;;;;11.05;8.15;;;2.30;1.00;;;;;;5070842;28;20239;-75
2023/11/22 00:16:46;;;;;;;10.38;7.85;;;2.40;1.00;;;;;;5070999;28;20319;-75
2023/11/22 00:19:13;;;;;;;8.07;7.25;;;2.40;1.00;;;;;;5069591;28;20369;-76
2023/11/22 00:21:40;;;;;;;9.55;6.95;;;2.50;1.00;;;;;;5070903;28;20533;-76
2023/11/22 00:24:08;;;;;;;8.95;7.32;;;2.60;1.00;;;;;;5068881;28;20278;-77
2023/11/22 00:26:35;;;;;;;9.68;7.30;;;2.60;1.00;;;;;;5067621;28;20248;-76
2023/11/22 00:29:02;;;;;;;9.07;6.00;;;2.60;1.00;;;;;;5064964;28;20295;-76
2023/11/22 00:31:29;;;;;;;7.40;6.60;;;2.60;1.00;;;;;;5052272;28;20240;-76
2023/11/22 00:33:57;;;;;;;10.60;7.45;;;2.60;1.00;;;;;;5071130;28;20279;-74
2023/11/22 00:36:24;;;;;;;9.05;5.95;;;2.60;1.00;;;;;;5065951;28;20300;-75
2023/11/22 00:38:51;;;;;;;7.18;6.07;;;2.60;1.00;;;;;;5056521;28;20256;-76
2023/11/22 00:41:19;;;;;;;8.57;6.55;;;2.60;1.00;;;;;;5050195;28;20771;-75
2023/11/22 00:43:45;;;;;;;7.50;6.50;;;2.60;1.00;;;;;;5056076;28;20243;-74
2023/11/22 00:46:12;;;;;;;8.20;6.80;;;2.50;1.00;;;;;;5064860;28;20335;-74
2023/11/22 00:48:39;;;;;;;8.10;6.13;;;2.50;1.00;;;;;;5043042;28;20305;-76
2023/11/22 00:51:08;;;;;;;7.03;5.40;;;2.50;1.00;;;;;;5050183;28;20260;-77
2023/11/22 00:53:36;;;;;;;8.55;6.13;;;2.50;1.00;;;;;;5071344;28;22112;-77
2023/11/22 00:56:04;;;;;;;8.52;7.32;;;2.50;1.00;;;;;;5052755;28;21149;-75
2023/11/22 00:58:31;;;;;;;10.02;6.82;;;2.50;1.00;;;;;;5062713;28;20260;-75
2023/11/22 01:00:58;;;;;;;9.63;6.90;;;2.50;1.00;;;;;;5058965;28;20348;-74
2023/11/22 01:03:25;;;;;;;9.00;6.53;;;2.50;1.00;;;;;;5044669;28;20256;-75
2023/11/22 01:05:52;;;;;;;6.88;5.90;;;2.40;1.00;;;;;;5063867;28;20661;-79
2023/11/22 01:08:20;;;;;;;9.50;6.85;;;2.40;1.00;;;;;;5065474;28;20251;-75
2023/11/22 01:10:47;;;;;;;8.27;5.80;;;2.40;1.00;;;;;;5066662;28;20326;-75
2023/11/22 01:13:14;;;;;;;8.55;6.68;;;2.40;1.00;;;;;;5064185;28;20237;-76
2023/11/22 01:15:42;;;;;;;7.78;5.95;;;2.30;1.00;;;;;;5067138;28;20236;-76
2023/11/22 01:18:08;;;;;;;7.18;6.45;;;2.10;1.00;;;;;;5053428;28;20348;-76
2023/11/22 01:20:35;;;;;;;7.30;6.50;;;2.00;1.00;;;;;;5055636;28;20252;-76
2023/11/22 01:23:02;;;;;;;7.97;6.75;;;1.80;1.00;;;;;;5057495;28;20316;-75
2023/11/22 01:25:31;;;;;;;7.57;6.35;;;1.80;1.00;;;;;;5050471;28;20264;-76
2023/11/22 01:27:58;;;;;;;11.18;5.70;;;1.70;1.00;;;;;;5068479;28;20239;-77
2023/11/22 01:30:24;;;;;;;10.38;7.78;;;1.70;1.00;;;;;;5059304;28;20728;-75
2023/11/22 01:32:51;;;;;;;8.13;7.30;;;1.60;1.00;;;;;;5062612;28;20338;-75
2023/11/22 01:35:18;;;;;;;8.70;6.70;;;1.50;1.00;;;;;;5053395;28;20419;-74
2023/11/22 01:37:45;;;;;;;8.30;6.90;;;1.40;1.00;;;;;;5068167;28;20241;-76
2023/11/22 01:40:13;;;;;;;7.82;6.60;;;1.30;1.00;;;;;;5067404;28;20318;-77
2023/11/22 01:42:41;;;;;;;7.63;6.35;;;1.30;1.00;;;;;;5068430;28;20639;-75
2023/11/22 01:45:09;;;;;;;7.72;6.15;;;1.20;1.00;;;;;;5057714;28;20775;-76
2023/11/22 01:47:37;;;;;;;10.13;7.32;;;1.10;1.00;;;;;;5047646;28;20798;-76
2023/11/22 01:50:06;;;;;;;6.90;5.70;;;1.10;1.00;;;;;;5057004;28;20323;-75
2023/11/22 01:52:33;;;;;;;9.35;6.72;;;1.00;1.00;;;;;;5053295;28;20233;-74
2023/11/22 01:55:04;;;;;;;7.40;6.70;;;1.00;1.00;;;;;;5068644;28;20670;-76
2023/11/22 01:57:33;;;;;;;7.88;6.13;;;1.00;1.00;;;;;;5066449;28;20295;-76
2023/11/22 02:00:03;;;;;;;10.20;6.70;;;0.90;1.00;;;;;;5056805;28;20238;-75
2023/11/22 02:02:31;;;;;;;7.47;5.47;;;0.90;1.00;;;;;;5056902;28;20241;-76
2023/11/22 02:04:58;;;;;;;6.80;6.10;;;0.80;1.00;;;;;;5049654;28;20252;-75
2023/11/22 02:07:25;;;;;;;8.18;5.80;;;0.70;1.00;;;;;;5061745;28;20315;-76
2023/11/22 02:09:52;;;;;;;6.32;5.43;;;0.70;1.00;;;;;;5049809;28;20331;-75
2023/11/22 02:12:20;;;;;;;5.55;5.05;;;0.60;1.00;;;;;;5064451;28;20239;-75
2023/11/22 02:14:47;;;;;;;6.85;5.25;;;0.60;1.00;;;;;;5067264;28;20751;-77
2023/11/22 02:17:16;;;;;;;6.85;5.35;;;0.60;1.00;;;;;;5063339;28;20348;-76
2023/11/22 02:19:43;;;;;;;6.47;5.40;;;0.60;1.00;;;;;;5060804;28;20379;-79
2023/11/22 02:22:10;;;;;;;5.70;4.57;;;0.50;1.00;;;;;;5066581;28;20324;-78
2023/11/22 02:24:39;;;;;;;7.80;5.03;;;0.50;1.00;;;;;;5066167;28;20264;-73
2023/11/22 02:27:07;;;;;;;5.68;5.07;;;0.50;1.00;;;;;;5058818;28;20240;-77
2023/11/22 02:29:34;;;;;;;9.57;5.45;;;0.50;1.00;;;;;;5061353;28;20368;-78
2023/11/22 02:32:01;;;;;;;6.85;4.95;;;0.50;1.00;;;;;;5062901;28;20328;-76
2023/11/22 02:34:28;;;;;;;8.85;5.80;;;0.40;1.00;;;;;;5063233;28;20237;-78
2023/11/22 02:36:55;;;;;;;7.47;5.00;;;0.40;1.00;;;;;;5044457;28;20237;-77
2023/11/22 02:39:24;;;;;;;6.07;5.25;;;0.40;1.00;;;;;;5070780;28;20229;-77
2023/11/22 02:41:53;;;;;;;8.32;5.25;;;0.40;1.00;;;;;;5062079;28;20382;-75
2023/11/22 02:44:20;;;;;;;6.80;5.60;;;0.40;1.00;;;;;;5046560;28;20271;-79
2023/11/22 02:46:47;;;;;;;6.72;5.07;;;0.40;1.00;;;;;;5064876;28;20902;-78
2023/11/22 02:49:13;;;;;;;6.80;5.35;;;0.30;1.00;;;;;;5064304;28;21145;-77
2023/11/22 02:51:40;;;;;;;5.82;4.38;;;0.30;1.00;;;;;;5057074;28;20245;-75
2023/11/22 02:54:07;;;;;;;6.47;5.10;;;0.30;1.00;;;;;;5060355;28;20240;-76
2023/11/22 02:56:34;;;;;;;5.63;5.03;;;0.30;1.00;;;;;;5046321;28;20328;-76
2023/11/22 02:59:03;;;;;;;5.88;5.28;;;0.30;1.00;;;;;;5055097;28;20237;-78
2023/11/22 03:01:29;;;;;;;6.43;4.70;;;0.30;1.00;;;;;;5059379;28;20236;-78
2023/11/22 03:03:58;;;;;;;6.05;4.95;;;0.30;1.00;;;;;;5082240;28;20241;-77
2023/11/22 03:06:27;;;;;;;5.97;5.32;;;0.30;1.00;;;;;;5055812;28;20316;-78
2023/11/22 03:08:54;;;;;;;6.68;5.10;;;0.20;1.00;;;;;;5055382;28;20332;-77
2023/11/22 03:11:22;;;;;;;5.57;4.82;;;0.30;1.00;;;;;;5048194;28;20269;-73
2023/11/22 03:13:49;;;;;;;7.10;5.30;;;0.30;1.00;;;;;;5054235;28;20748;-78
2023/11/22 03:16:18;;;;;;;7.20;5.53;;;0.30;1.00;;;;;;5051822;28;20336;-73
2023/11/22 03:18:45;;;;;;;9.75;5.97;;;0.30;1.00;;;;;;5059774;28;20260;-79
2023/11/22 03:21:12;;;;;;;6.95;5.72;;;0.30;1.00;;;;;;5067509;28;20236;-80
2023/11/22 03:23:40;;;;;;;7.55;6.15;;;0.30;1.00;;;;;;5049747;28;20340;-74
2023/11/22 03:26:07;;;;;;;6.68;5.22;;;0.30;1.00;;;;;;5053225;28;20232;-78
2023/11/22 03:28:34;;;;;;;8.45;5.15;;;0.30;1.00;;;;;;5067269;28;20272;-79
2023/11/22 03:31:02;;;;;;;7.43;5.32;;;0.30;1.00;;;;;;5061964;28;20730;-74
2023/11/22 03:33:31;;;;;;;6.53;5.40;;;0.30;1.00;;;;;;5062720;28;20232;-73
2023/11/22 03:35:57;;;;;;;8.45;6.63;;;0.20;1.00;;;;;;5048903;28;20378;-74
2023/11/22 03:38:25;;;;;;;9.25;7.15;;;0.30;1.00;;;;;;5060649;28;20291;-72
2023/11/22 03:40:53;;;;;;;10.05;7.07;;;0.30;1.00;;;;;;5058485;28;20220;-72
2023/11/22 03:43:20;;;;;;;11.00;7.65;;;0.30;1.00;;;;;;5053343;28;21862;-76
2023/11/22 03:45:47;;;;;;;9.05;7.30;;;0.30;1.00;;;;;;5055777;28;20328;-73
2023/11/22 03:48:14;;;;;;;11.32;7.95;;;0.30;1.00;;;;;;5046637;28;20295;-74
2023/11/22 03:50:42;;;;;;;10.25;7.78;;;0.30;1.00;;;;;;5052502;28;20299;-73
2023/11/22 03:53:09;;;;;;;10.23;7.93;;;0.30;1.00;;;;;;5051132;28;20243;-73
2023/11/22 03:55:36;;;;;;;13.75;10.38;;;0.20;1.00;;;;;;5058136;28;20715;-72
2023/11/22 03:58:03;;;;;;;9.32;7.13;;;0.10;1.00;;;;;;5062163;28;20345;-72
2023/11/22 04:00:30;;;;;;;13.35;8.10;;;0.10;1.00;;;;;;5065199;28;20775;-73
2023/11/22 04:02:59;;;;;;;11.45;7.80;;;0.10;1.00;;;;;;5040949;28;20237;-72
2023/11/22 04:05:26;;;;;;;9.57;6.82;;;0.10;1.00;;;;;;5056916;28;20240;-72
2023/11/22 04:07:56;;;;;;;8.48;7.30;;;0.10;1.00;;;;;;5058667;28;20237;-72
2023/11/22 04:10:23;;;;;;;7.85;6.35;;;0.00;1.00;;;;;;5062938;28;20986;-73
2023/11/22 04:12:50;;;;;;;9.35;7.10;;;0.10;1.00;;;;;;5064314;28;20243;-72
2023/11/22 04:15:17;;;;;;;9.93;8.65;;;0.10;1.00;;;;;;5064383;28;20268;-72
2023/11/22 04:17:44;;;;;;;9.23;6.90;;;0.00;1.00;;;;;;5066339;28;20334;-72
2023/11/22 04:20:14;;;;;;;11.10;7.80;;;0.00;1.00;;;;;;5054196;28;20283;-72
2023/11/22 04:22:42;;;;;;;11.77;7.15;;;0.00;1.00;;;;;;5044933;28;20237;-72
2023/11/22 04:25:12;;;;;;;14.40;8.40;;;0.10;1.00;;;;;;5063955;28;21838;-73
2023/11/22 04:27:39;;;;;;;20.90;14.27;;;0.10;1.00;;;;;;5048780;28;20315;-73
2023/11/22 04:30:09;;;;;;;13.25;9.52;;;0.00;1.00;;;;;;5059276;28;20419;-72
2023/11/22 04:32:37;;;;;;;10.02;9.02;;;0.00;1.00;;;;;;5069761;28;20233;-74
2023/11/22 04:35:04;;;;;;;8.50;7.25;;;0.00;1.00;;;;;;5066385;28;20260;-73
2023/11/22 04:37:32;;;;;;;11.98;7.22;;;0.00;1.00;;;;;;5063175;28;20800;-72
2023/11/22 04:39:59;;;;;;;7.97;6.78;;;0.00;1.00;;;;;;5065309;28;20348;-75
2023/11/22 04:42:27;;;;;;;10.20;7.35;;;0.00;1.00;;;;;;5062293;28;20341;-75
2023/11/22 04:44:55;;;;;;;10.00;7.03;;;0.00;1.00;;;;;;5058835;28;20243;-76
2023/11/22 04:47:22;;;;;;;9.05;7.18;;;-0.10;1.00;;;;;;5058649;28;20459;-76
2023/11/22 04:49:49;;;;;;;12.73;9.70;;;-0.10;1.00;;;;;;5069057;28;20241;-76
2023/11/22 04:52:16;;;;;;;9.70;7.05;;;-0.20;1.00;;;;;;5057303;28;22091;-75
2023/11/22 04:54:43;;;;;;;12.32;8.80;;;-0.20;1.00;;;;;;5072394;28;20300;-75
2023/11/22 04:57:10;;;;;;;10.68;8.02;;;-0.20;1.00;;;;;;5066491;28;20286;-75
2023/11/22 04:59:40;;;;;;;9.18;7.93;;;-0.10;1.00;;;;;;5068920;28;20266;-74
2023/11/22 05:02:09;;;;;;;13.07;8.30;;;-0.10;1.00;;;;;;5067435;28;20617;-78
2023/11/22 05:04:35;;;;;;;9.60;7.30;;;-0.10;1.00;;;;;;5054034;28;20240;-75
2023/11/22 05:07:03;;;;;;;11.13;7.47;;;-0.10;1.00;;;;;;5056465;28;20348;-75
2023/11/22 05:09:30;;;;;;;9.95;8.20;;;-0.20;1.00;;;;;;5049871;28;20757;-75
2023/11/22 05:11:57;;;;;;;12.13;8.00;;;-0.10;1.00;;;;;;5067932;28;20348;-74
2023/11/22 05:14:25;;;;;;;19.67;11.85;;;-0.20;1.00;;;;;;5068735;28;20263;-77
2023/11/22 05:16:53;;;;;;;95.28;61.28;;;-0.20;1.00;;;;;;5071450;28;20248;-75
2023/11/22 05:19:21;;;;;;;12.75;9.65;;;-0.20;1.00;;;;;;5067391;28;20272;-75
2023/11/22 05:21:48;;;;;;;8.52;6.50;;;-0.20;1.00;;;;;;5069313;28;20236;-75
2023/11/22 05:24:15;;;;;;;7.65;6.85;;;-0.20;1.00;;;;;;5069301;28;20295;-73
2023/11/22 05:26:42;;;;;;;9.68;8.35;;;-0.20;1.00;;;;;;5066272;28;20258;-74
2023/11/22 05:29:09;;;;;;;11.32;7.85;;;-0.20;1.00;;;;;;5068968;28;20350;-74
2023/11/22 05:31:37;;;;;;;15.70;8.57;;;-0.20;1.00;;;;;;5072493;28;20901;-75
2023/11/22 05:34:05;;;;;;;10.98;9.30;;;-0.20;1.00;;;;;;5066719;28;20247;-79
2023/11/22 05:36:32;;;;;;;8.55;6.90;;;-0.20;1.00;;;;;;5068759;28;20252;-75
2023/11/22 05:38:59;;;;;;;9.05;6.63;;;-0.20;1.00;;;;;;5070127;28;20913;-75
2023/11/22 05:41:26;;;;;;;9.80;7.80;;;-0.20;1.00;;;;;;5068011;28;20237;-74
2023/11/22 05:43:53;;;;;;;8.75;6.97;;;-0.30;1.00;;;;;;5069485;28;20232;-75
2023/11/22 05:46:21;;;;;;;10.43;7.80;;;-0.30;1.00;;;;;;5065298;28;20767;-74
2023/11/22 05:48:49;;;;;;;12.43;7.30;;;-0.30;1.00;;;;;;5063075;28;20239;-77
2023/11/22 05:51:20;;;;;;;8.45;7.05;;;-0.30;1.00;;;;;;5064522;28;20236;-72
2023/11/22 05:53:47;;;;;;;17.42;10.10;;;-0.30;1.00;;;;;;5067352;28;20344;-72
2023/11/22 05:56:14;;;;;;;9.55;7.18;;;-0.30;1.00;;;;;;5064392;28;21938;-73
2023/11/22 05:58:42;;;;;;;10.82;8.20;;;-0.30;1.00;;;;;;5065318;28;20327;-74
2023/11/22 06:01:09;;;;;;;9.32;7.15;;;-0.20;1.00;;;;;;5066528;28;20240;-72
2023/11/22 06:03:38;;;;;;;10.30;7.28;;;-0.30;1.00;;;;;;5066210;28;20290;-73
2023/11/22 06:06:06;;;;;;;11.57;7.80;;;-0.30;1.00;;;;;;5062273;28;20692;-72
2023/11/22 06:08:35;;;;;;;13.20;7.30;;;-0.30;1.00;;;;;;5067660;28;20242;-75
2023/11/22 06:11:03;;;;;;;12.95;8.00;;;-0.30;1.00;;;;;;5062808;28;21016;-72
2023/11/22 06:13:31;;;;;;;11.98;9.65;;;-0.30;1.00;;;;;;5063989;28;20256;-75
2023/11/22 06:15:58;;;;;;;12.00;8.85;;;-0.30;1.00;;;;;;5062146;28;20241;-76
2023/11/22 06:18:29;;;;;;;8.20;7.40;;;-0.30;1.00;;;;;;5052534;28;20253;-72
2023/11/22 06:20:56;;;;;;;14.60;12.30;;;-0.30;1.00;;;;;;5052377;28;20240;-71
2023/11/22 06:23:28;;;;;;;9.85;8.85;;;-0.30;1.00;;;;;;5063006;28;20323;-73
2023/11/22 06:25:58;;;;;;;12.38;10.35;;;-0.30;1.00;;;;;;5051183;28;20260;-74
2023/11/22 06:28:25;;;;;;;12.40;8.98;;;-0.30;1.00;;;;;;5053654;28;20232;-72
2023/11/22 06:30:52;;;;;;;14.15;9.00;;;-0.30;1.00;;;;;;5064316;28;20755;-73
2023/11/22 06:33:22;;;;;;;16.83;9.32;;;-0.30;1.00;;;;;;5062810;28;20236;-72
2023/11/22 06:35:49;;;;;;;12.27;8.40;;;-0.30;1.00;;;;;;5055621;28;20714;-71
2023/11/22 06:38:16;;;;;;;11.63;9.30;;;-0.30;1.00;;;;;;5043903;28;20279;-72
2023/11/22 06:40:43;;;;;;;8.85;7.88;;;-0.30;1.00;;;;;;5066464;28;20264;-73
2023/11/22 06:43:12;;;;;;;12.98;8.63;;;-0.30;1.00;;;;;;5061657;28;20241;-73
2023/11/22 06:45:39;;;;;;;11.75;8.75;;;-0.30;1.00;;;;;;5060202;28;20383;-72
2023/11/22 06:48:06;;;;;;;13.98;9.93;;;-0.30;1.00;;;;;;5063551;28;20326;-72
2023/11/22 06:50:33;;;;;;;15.25;10.73;;;-0.20;1.00;;;;;;5063377;28;20737;-73
2023/11/22 06:53:00;;;;;;;14.13;10.40;;;-0.10;1.00;;;;;;5066085;28;20240;-75
2023/11/22 06:55:27;;;;;;;13.40;10.85;;;-0.10;1.00;;;;;;5065322;28;20237;-73
2023/11/22 06:57:56;;;;;;;24.17;15.70;;;0.10;1.00;;;;;;5064896;28;20255;-73
2023/11/22 07:00:24;;;;;;;14.55;11.05;;;0.10;1.00;;;;;;5065675;28;20313;-78
2023/11/22 07:02:51;;;;;;;13.50;10.32;;;0.10;1.00;;;;;;5062827;28;20244;-78
2023/11/22 07:05:18;;;;;;;16.00;11.05;;;0.10;1.00;;;;;;5056976;28;20244;-77
2023/11/22 07:07:46;;;;;;;16.50;11.65;;;0.10;1.00;;;;;;5054252;28;20260;-78
2023/11/22 07:10:13;;;;;;;14.68;9.98;;;0.00;1.00;;;;;;5059702;28;20288;-77
2023/11/22 07:12:43;;;;;;;12.23;9.48;;;-0.10;1.00;;;;;;5065257;28;20233;-75
2023/11/22 07:15:11;;;;;;;13.57;9.00;;;-0.10;1.00;;;;;;5060696;28;20701;-78
2023/11/22 07:17:39;;;;;;;12.38;8.85;;;-0.10;1.00;;;;;;5063420;28;20330;-76
2023/11/22 07:20:10;;;;;;;12.05;9.02;;;-0.20;1.00;;;;;;5066721;28;20236;-77
2023/11/22 07:22:37;;;;;;;12.80;10.57;;;-0.10;1.00;;;;;;5066374;28;20244;-78
2023/11/22 07:25:07;;;;;;;10.85;9.20;;;-0.10;1.00;;;;;;5068473;28;20287;-80
2023/11/22 07:27:33;;;;;;;15.43;10.40;;;-0.10;1.00;;;;;;5062888;28;20245;-75
2023/11/22 07:30:00;;;;;;;13.10;9.38;;;-0.10;1.00;;;;;;5053418;28;20241;-80
2023/11/22 07:32:27;;;;;;;11.93;8.77;;;-0.10;1.00;;;;;;5070453;28;20240;-78
2023/11/22 07:34:56;;;;;;;65.85;48.92;;;0.00;1.00;;;;;;5069746;28;20268;-77
2023/11/22 07:37:23;;;;;;;12.63;7.50;;;0.00;1.00;;;;;;5067493;28;20334;-78
2023/11/22 07:39:50;;;;;;;9.32;8.43;;;0.10;1.00;;;;;;5064620;28;20763;-77
2023/11/22 07:42:18;;;;;;;14.25;10.40;;;0.10;1.00;;;;;;5065330;28;20310;-76
2023/11/22 07:44:45;;;;;;;13.52;9.18;;;0.20;1.00;;;;;;5067735;28;20747;-74
2023/11/22 07:47:12;;;;;;;18.20;9.88;;;0.30;1.00;;;;;;5070974;28;20253;-78
2023/11/22 07:49:41;;;;;;;15.65;8.30;;;0.40;1.00;;;;;;5059363;28;20243;-78
2023/11/22 07:52:13;;;;;;;9.85;8.25;;;0.50;1.00;;;;;;5068040;28;21055;-76
2023/11/22 07:54:40;;;;;;;14.75;9.82;;;0.60;1.00;;;;;;5066960;28;20237;-78
2023/11/22 07:57:08;;;;;;;11.05;8.88;;;0.70;1.00;;;;;;5066029;28;20741;-76
2023/11/22 07:59:36;;;;;;;11.65;9.85;;;0.80;1.00;;;;;;5068659;28;20361;-78
2023/11/22 08:02:06;;;;;;;13.40;9.00;;;0.90;1.00;;;;;;5061294;28;20233;-78
2023/11/22 08:04:33;;;;;;;13.23;8.48;;;1.00;1.00;;;;;;5053392;28;20236;-76
2023/11/22 08:07:02;;;;;;;8.63;7.47;;;1.20;1.00;;;;;;5067634;28;20237;-75
2023/11/22 08:09:32;;;;;;;10.82;8.00;;;1.20;1.00;;;;;;5073199;28;20247;-71
2023/11/22 08:12:00;;;;;;;19.65;12.95;;;1.20;1.00;;;;;;5067242;28;20244;-73
2023/11/22 08:14:28;;;;;;;11.63;9.23;;;1.20;1.00;;;;;;5066376;28;20728;-72
2023/11/22 08:16:55;;;;;;;11.88;8.82;;;1.30;1.00;;;;;;5072147;28;20716;-72
2023/11/22 08:19:23;;;;;;;9.80;7.93;;;1.30;1.00;;;;;;5068085;28;20947;-72
2023/11/22 08:21:50;;;;;;;15.65;9.48;;;1.40;1.00;;;;;;5063353;28;20241;-71
2023/11/22 08:24:18;;;;;;;15.38;8.90;;;1.50;1.00;;;;;;5067205;28;20237;-73
2023/11/22 08:26:47;;;;;;;10.68;9.00;;;1.50;1.00;;;;;;5067469;28;20241;-72
2023/11/22 08:29:16;;;;;;;11.25;9.05;;;1.60;1.00;;;;;;5052732;28;20241;-72
2023/11/22 08:31:43;;;;;;;8.75;7.57;;;1.60;1.00;;;;;;5063843;28;20236;-73
2023/11/22 08:34:11;;;;;;;12.63;7.70;;;1.60;1.00;;;;;;5067134;28;20243;-69
2023/11/22 08:36:38;;;;;;;12.05;8.80;;;1.60;1.00;;;;;;5056647;28;20237;-70
2023/11/22 08:39:05;;;;;;;11.75;8.30;;;1.70;1.00;;;;;;5050763;28;20714;-71
2023/11/22 08:41:33;;;;;;;11.60;8.90;;;1.80;1.00;;;;;;5051440;28;20231;-71
2023/11/22 08:44:01;;;;;;;8.57;7.68;;;1.80;1.00;;;;;;5068892;28;20255;-75
2023/11/22 08:46:28;;;;;;;9.98;7.07;;;1.80;1.00;;;;;;5059394;28;20248;-71
2023/11/22 08:48:56;;;;;;;10.40;7.50;;;1.90;1.00;;;;;;5057985;28;20291;-74
2023/11/22 08:51:23;;;;;;;48.00;21.27;;;1.90;1.00;;;;;;5068784;28;20367;-72
2023/11/22 08:53:50;;;;;;;10.32;7.90;;;1.90;1.00;;;;;;5064977;28;20748;-72
2023/11/22 08:56:17;;;;;;;11.90;7.70;;;1.90;1.00;;;;;;5064759;28;20428;-72
2023/11/22 08:58:44;;;;;;;9.52;7.88;;;1.70;1.00;;;;;;5069828;28;20233;-71
2023/11/22 09:01:14;;;;;;;10.20;7.10;;;1.80;1.00;;;;;;5063760;28;20249;-71
2023/11/22 09:03:42;;;;;;;10.15;7.13;;;1.90;1.00;;;;;;5065935;28;20315;-69
2023/11/22 09:06:09;;;;;;;8.73;7.70;;;1.90;1.00;;;;;;5066344;28;20260;-70
2023/11/22 09:08:36;;;;;;;10.60;7.22;;;2.00;1.00;;;;;;5064624;28;20294;-71
2023/11/22 09:11:05;;;;;;;8.75;6.65;;;2.00;1.00;;;;;;5064627;28;20295;-71
2023/11/22 09:13:32;;;;;;;11.55;7.60;;;2.00;1.00;;;;;;5062893;28;20713;-72
2023/11/22 09:15:59;;;;;;;10.70;7.88;;;2.00;1.00;;;;;;5063955;28;20232;-71
2023/11/22 09:18:28;;;;;;;8.27;7.10;;;2.30;1.00;;;;;;5066428;28;20300;-73
2023/11/22 09:20:55;;;;;;;10.10;6.78;;;2.90;1.00;;;;;;5065368;28;20229;-79
2023/11/22 09:23:22;;;;;;;9.70;7.65;;;3.90;1.00;;;;;;5055356;28;20320;-80
2023/11/22 09:25:50;;;;;;;9.85;8.07;;;4.20;1.00;;;;;;5056218;28;20238;-79
2023/11/22 09:28:19;;;;;;;9.68;6.88;;;4.50;1.00;;;;;;5059653;28;20469;-77
2023/11/22 09:30:48;;;;;;;9.77;7.97;;;4.80;1.00;;;;;;5070418;28;20282;-79
2023/11/22 09:33:16;;;;;;;6.75;6.10;;;4.60;1.00;;;;;;5065904;28;20311;-76
2023/11/22 09:35:47;;;;;;;11.40;7.75;;;4.20;1.00;;;;;;5065054;28;20314;-78
2023/11/22 09:38:15;;;;;;;11.70;8.13;;;3.90;1.00;;;;;;5068838;28;20264;-77
2023/11/22 09:40:44;;;;;;;10.00;6.82;;;4.10;1.00;;;;;;5053666;28;20238;-77
2023/11/22 09:43:15;;;;;;;10.70;6.35;;;4.20;1.00;;;;;;5064733;28;20225;-78
2023/11/22 09:45:42;;;;;;;8.73;7.40;;;4.10;1.00;;;;;;5069194;28;20320;-74
2023/11/22 09:48:15;;;;;;;8.50;6.15;;;4.30;1.00;;;;;;5070792;28;20656;-79
2023/11/22 09:50:55;;;;;;;8.88;7.97;;;4.50;1.00;;;;;;5062797;28;20236;-76
2023/11/22 09:53:30;;;;;;;11.02;7.30;;;4.70;1.00;;;;;;5068179;28;20262;-78
2023/11/22 09:55:58;;;;;;;11.15;6.68;;;4.50;1.00;;;;;;5066852;28;20344;-76
2023/11/22 09:58:25;;;;;;;8.23;7.05;;;4.50;1.00;;;;;;5055287;28;20244;-77
2023/11/22 10:00:53;;;;;;;13.50;8.25;;;4.50;1.00;;;;;;5069928;28;20306;-75
2023/11/22 10:03:20;;;;;;;9.05;7.10;;;4.60;1.00;;;;;;5061043;28;20682;-80
2023/11/22 10:05:49;;;;;;;8.30;6.82;;;5.20;1.00;;;;;;5052818;28;20233;-79
2023/11/22 10:08:17;;;;;;;10.70;9.70;;;5.80;1.00;;;;;;5052805;28;20230;-78
2023/11/22 10:10:47;;;;;;;9.32;7.35;;;6.40;1.00;;;;;;5064454;28;20246;-76
2023/11/22 10:13:15;;;;;;;8.80;6.20;;;6.90;1.00;;;;;;5049226;28;20243;-76
2023/11/22 10:15:43;;;;;;;9.93;7.70;;;7.00;1.00;;;;;;5050669;28;20246;-78
2023/11/22 10:18:13;;;;;;;10.30;7.60;;;7.10;1.00;;;;;;5057554;28;20236;-77
2023/11/22 10:20:43;;;;;;;9.27;8.05;;;7.10;1.00;;;;;;5063902;28;20234;-78
2023/11/22 10:23:13;;;;;;;11.95;7.40;;;6.70;1.00;;;;;;5065755;28;20272;-77
2023/11/22 10:25:45;;;;;;;16.55;12.57;;;6.60;1.00;;;;;;5072985;28;20229;-77
2023/11/22 10:28:12;;;;;;;13.20;8.02;;;7.00;1.00;;;;;;5062751;28;21129;-79
2023/11/22 10:30:40;;;;;;;13.05;7.68;;;7.40;1.00;;;;;;5069995;28;20241;-73
2023/11/22 10:33:07;;;;;;;9.68;7.38;;;7.50;1.00;;;;;;5063374;28;20833;-72
2023/11/22 10:35:34;;;;;;;7.95;6.85;;;7.30;1.00;;;;;;5054114;28;20237;-73
2023/11/22 10:38:02;;;;;;;8.00;7.15;;;7.20;1.00;;;;;;5053261;28;20295;-73
2023/11/22 10:40:31;;;;;;;7.63;6.88;;;7.20;1.00;;;;;;5056642;28;20238;-74
2023/11/22 10:42:58;;;;;;;8.13;6.93;;;6.80;1.00;;;;;;5052439;28;20239;-73
2023/11/22 10:45:28;;;;;;;11.93;9.27;;;6.30;1.00;;;;;;5049980;28;20256;-74
2023/11/22 10:47:57;;;;;;;8.25;7.10;;;6.00;1.00;;;;;;5064673;28;20237;-74
2023/11/22 10:50:26;;;;;;;9.63;6.55;;;5.90;1.00;;;;;;5065263;28;20929;-74
2023/11/22 10:52:55;;;;;;;10.38;8.00;;;6.10;1.00;;;;;;5064215;28;20333;-73
2023/11/22 10:55:26;;;;;;;8.90;7.95;;;6.60;1.00;;;;;;5062991;28;21335;-73
2023/11/22 10:58:01;;;;;;;8.52;7.72;;;6.90;1.00;;;;;;5059758;28;20242;-75
2023/11/22 11:00:30;;;;;;;8.80;7.18;;;6.90;1.00;;;;;;5067483;28;20302;-74
2023/11/22 11:03:02;;;;;;;8.50;7.10;;;6.60;1.00;;;;;;5056946;28;20718;-72
2023/11/22 11:05:31;;;;;;;9.80;7.20;;;6.50;1.00;;;;;;5050393;28;20248;-72
2023/11/22 11:08:02;;;;;;;8.52;7.65;;;6.40;1.00;;;;;;5063568;28;20233;-74
2023/11/22 11:10:32;;;;;;;11.27;7.15;;;6.40;1.00;;;;;;5051754;28;20246;-71
2023/11/22 11:13:01;;;;;;;7.55;6.85;;;6.50;1.00;;;;;;5057156;28;20256;-73
2023/11/22 11:15:29;;;;;;;9.27;7.22;;;6.70;1.00;;;;;;5050732;28;20249;-74
2023/11/22 11:17:57;;;;;;;7.05;6.35;;;7.30;1.00;;;;;;5063132;28;20810;-72
2023/11/22 11:20:24;;;;;;;13.23;6.90;;;7.90;1.00;;;;;;5062970;28;20236;-73
2023/11/22 11:22:52;;;;;;;8.82;7.65;;;8.00;1.00;;;;;;5053173;28;21108;-74
2023/11/22 11:25:19;;;;;;;8.00;6.43;;;8.30;1.00;;;;;;5054359;28;20244;-72
2023/11/22 11:27:56;;;;;;;7.72;6.10;;;8.60;1.00;;;;;;5060631;28;20501;-72
2023/11/22 11:30:46;;;;;;;7.00;6.30;;;8.60;1.00;;;;;;5057994;28;20283;-74
2023/11/22 11:33:16;;;;;;;8.40;6.68;;;8.50;1.00;;;;;;5057727;28;20488;-73
2023/11/22 11:35:46;;;;;;;8.20;7.37;;;8.70;1.00;;;;;;5059546;28;20968;-73
2023/11/22 11:38:14;;;;;;;9.63;8.23;;;9.10;1.00;;;;;;5060170;28;20494;-73
2023/11/22 11:40:42;;;;;;;9.47;8.57;;;8.80;1.00;;;;;;5068310;28;21189;-73
2023/11/22 11:43:10;;;;;;;8.00;7.10;;;8.60;1.00;;;;;;5064360;28;20478;-73
2023/11/22 11:45:40;;;;;;;14.10;8.80;;;9.00;1.00;;;;;;5068656;28;20463;-72
2023/11/22 11:48:08;;;;;;;13.60;8.00;;;9.80;1.00;;;;;;5066502;28;20493;-72
2023/11/22 11:50:36;;;;;;;7.53;6.77;;;10.30;1.00;;;;;;5070143;28;20453;-73
2023/11/22 11:53:04;;;;;;;11.63;7.77;;;10.80;1.00;;;;;;5065393;28;20480;-72
2023/11/22 11:55:31;;;;;;;8.23;7.43;;;11.10;1.00;;;;;;5068567;28;20960;-73
2023/11/22 11:58:04;;;;;;;8.00;6.40;;;11.20;1.00;;;;;;5068941;28;20477;-73
2023/11/22 12:00:32;;;;;;;7.17;6.40;;;12.00;1.00;;;;;;5063131;28;20480;-73
2023/11/22 12:02:59;;;;;;;7.20;6.50;;;12.50;1.00;;;;;;5056451;28;21045;-72
2023/11/22 12:05:27;;;;;;;8.13;7.40;;;12.90;1.00;;;;;;5051912;28;20466;-73
2023/11/22 12:07:55;;;;;;;8.33;7.30;;;12.80;1.00;;;;;;5060780;28;20480;-73
2023/11/22 12:10:24;;;;;;;9.07;7.80;;;12.30;1.00;;;;;;5062373;28;21289;-72
2023/11/22 12:12:51;;;;;;;12.33;11.07;;;12.50;1.00;;;;;;5055408;28;20459;-75
2023/11/22 12:15:18;;;;;;;6.73;6.10;;;12.60;1.00;;;;;;5070796;28;21146;-73
2023/11/22 12:17:46;;;;;;;10.70;7.50;;;12.60;1.00;;;;;;5068158;28;20479;-72
2023/11/22 12:20:13;;;;;;;9.70;6.60;;;12.60;1.00;;;;;;5069360;28;20498;-72
2023/11/22 12:22:43;;;;;;;8.60;6.50;;;13.10;1.00;;;;;;5072182;28;20439;-72
2023/11/22 12:25:11;;;;;;;9.87;7.20;;;13.10;1.00;;;;;;5068673;28;20463;-73
2023/11/22 12:27:41;;;;;;;7.83;7.13;;;12.70;1.00;;;;;;5069565;28;20491;-73
2023/11/22 12:30:11;;;;;;;7.70;5.73;;;12.00;1.00;;;;;;5068714;28;21847;-75
2023/11/22 12:32:42;;;;;;;9.03;8.00;;;11.50;1.00;;;;;;5070643;28;20475;-72
2023/11/22 12:35:11;;;;;;;9.00;6.97;;;11.00;1.00;;;;;;5067023;28;20534;-73
2023/11/22 12:37:39;;;;;;;10.03;6.90;;;10.60;1.00;;;;;;5068871;28;20539;-75
2023/11/22 12:40:17;;;;;;;7.40;6.53;;;11.00;1.00;;;;;;5058444;28;20510;-74
2023/11/22 12:42:49;;;;;;;9.20;6.50;;;11.20;1.00;;;;;;5070819;28;20518;-73
2023/11/22 12:45:23;;;;;;;7.63;6.23;;;11.00;1.00;;;;;;5057176;28;20554;-74
2023/11/22 12:47:50;;;;;;;9.27;6.60;;;10.40;1.00;;;;;;5061623;28;20482;-73
2023/11/22 12:50:38;;;;;;;6.83;6.10;;;9.90;1.00;;;;;;5058139;28;22378;-75
2023/11/22 12:53:11;;;;;;;11.33;6.80;;;9.90;1.00;;;;;;5068610;28;20467;-76
2023/11/22 12:55:42;;;;;;;7.60;6.83;;;10.00;1.00;;;;;;5058945;28;21197;-77
2023/11/22 12:58:10;;;;;;;8.07;6.87;;;10.10;1.00;;;;;;5069129;28;21188;-75
2023/11/22 13:00:38;;;;;;;6.87;6.17;;;9.90;1.00;;;;;;5065765;28;20833;-76
2023/11/22 13:03:08;;;;;;;9.63;7.40;;;9.20;1.00;;;;;;5056992;28;20460;-74
2023/11/22 13:05:35;;;;;;;7.23;6.53;;;8.60;1.00;;;;;;5059054;28;21025;-75